sensor_id;sensor_type;location;lat;lon;timestamp;temperature;humidity
20973;DHT22;10645;52.370;13.314;2023-05-19T00:01:31;8.10;99.90
20973;DHT22;10645;52.370;13.314;2023-05-19T00:03:58;8.10;99.90
20973;DHT22;10645;52.370;13.314;2023-05-19T00:06:29;8.10;99.90
20973;DHT22;10645;52.370;13.314;2023-05-19T00:09:00;8.00;99.90
20973;DHT22;10645;52.370;13.314;2023-05-19T00:11:27;8.00;99.90
20973;DHT22;10645;52.370;13.314;2023-05-19T00:13:55;8.00;99.90
20973;DHT22;10645;52.370;13.314;2023-05-19T00:16:22;7.90;99.90
20973;DHT22;10645;52.370;13.314;2023-05-19T00:18:49;7.90;99.90
20973;DHT22;10645;52.370;13.314;2023-05-19T00:21:15;7.80;99.90
20973;DHT22;10645;52.370;13.314;2023-05-19T00:23:41;7.70;99.90
20973;DHT22;10645;52.370;13.314;2023-05-19T00:26:07;7.70;99.90
20973;DHT22;10645;52.370;13.314;2023-05-19T00:28:33;7.60;99.90
20973;DHT22;10645;52.370;13.314;2023-05-19T00:30:59;7.50;99.90
20973;DHT22;10645;52.370;13.314;2023-05-19T00:33:27;7.50;99.90
20973;DHT22;10645;52.370;13.314;2023-05-19T00:35:53;7.50;99.90
20973;DHT22;10645;52.370;13.314;2023-05-19T00:38:19;7.40;99.90
20973;DHT22;10645;52.370;13.314;2023-05-19T00:40:45;7.30;99.90
20973;DHT22;10645;52.370;13.314;2023-05-19T00:43:11;7.30;99.90
20973;DHT22;10645;52.370;13.314;2023-05-19T00:45:37;7.20;99.90
20973;DHT22;10645;52.370;13.314;2023-05-19T00:48:04;7.20;99.90
20973;DHT22;10645;52.370;13.314;2023-05-19T00:50:30;7.10;99.90
20973;DHT22;10645;52.370;13.314;2023-05-19T00:52:56;7.20;99.90
20973;DHT22;10645;52.370;13.314;2023-05-19T00:55:25;7.10;99.90
20973;DHT22;10645;52.370;13.314;2023-05-19T00:57:54;7.10;99.90
20973;DHT22;10645;52.370;13.314;2023-05-19T01:00:21;7.10;99.90
20973;DHT22;10645;52.370;13.314;2023-05-19T01:02:47;7.00;99.90
20973;DHT22;10645;52.370;13.314;2023-05-19T01:05:15;7.00;99.90
20973;DHT22;10645;52.370;13.314;2023-05-19T01:07:41;7.00;99.90
20973;DHT22;10645;52.370;13.314;2023-05-19T01:10:08;7.00;99.90
20973;DHT22;10645;52.370;13.314;2023-05-19T01:12:35;7.00;99.90
20973;DHT22;10645;52.370;13.314;2023-05-19T01:15:02;7.00;99.90
20973;DHT22;10645;52.370;13.314;2023-05-19T01:17:49;6.90;99.90
20973;DHT22;10645;52.370;13.314;2023-05-19T01:20:23;6.80;99.90
20973;DHT22;10645;52.370;13.314;2023-05-19T01:23:22;6.80;99.90
20973;DHT22;10645;52.370;13.314;2023-05-19T01:26:29;6.80;99.90
20973;DHT22;10645;52.370;13.314;2023-05-19T01:29:35;6.80;99.90
20973;DHT22;10645;52.370;13.314;2023-05-19T01:32:06;6.70;99.90
20973;DHT22;10645;52.370;13.314;2023-05-19T01:34:34;6.70;99.90
20973;DHT22;10645;52.370;13.314;2023-05-19T01:37:04;6.70;99.90
20973;DHT22;10645;52.370;13.314;2023-05-19T01:39:30;6.80;99.90
20973;DHT22;10645;52.370;13.314;2023-05-19T01:41:57;6.70;99.90
20973;DHT22;10645;52.370;13.314;2023-05-19T01:44:24;6.70;99.90
20973;DHT22;10645;52.370;13.314;2023-05-19T01:46:50;6.70;99.90
20973;DHT22;10645;52.370;13.314;2023-05-19T01:49:16;6.70;99.90
20973;DHT22;10645;52.370;13.314;2023-05-19T01:51:44;6.70;99.90
20973;DHT22;10645;52.370;13.314;2023-05-19T01:54:10;6.60;99.90
20973;DHT22;10645;52.370;13.314;2023-05-19T01:56:43;6.60;99.90
20973;DHT22;10645;52.370;13.314;2023-05-19T01:59:36;6.60;99.90
20973;DHT22;10645;52.370;13.314;2023-05-19T02:02:20;6.60;99.90
20973;DHT22;10645;52.370;13.314;2023-05-19T02:04:56;6.50;99.90
20973;DHT22;10645;52.370;13.314;2023-05-19T02:07:47;6.60;99.90
20973;DHT22;10645;52.370;13.314;2023-05-19T02:10:25;6.50;99.90
20973;DHT22;10645;52.370;13.314;2023-05-19T02:12:53;6.50;99.90
20973;DHT22;10645;52.370;13.314;2023-05-19T02:15:24;6.40;99.90
20973;DHT22;10645;52.370;13.314;2023-05-19T02:17:52;6.40;99.90
20973;DHT22;10645;52.370;13.314;2023-05-19T02:20:19;6.30;99.90
20973;DHT22;10645;52.370;13.314;2023-05-19T02:22:47;6.30;99.90
20973;DHT22;10645;52.370;13.314;2023-05-19T02:25:13;6.30;99.90
20973;DHT22;10645;52.370;13.314;2023-05-19T02:27:40;6.30;99.90
20973;DHT22;10645;52.370;13.314;2023-05-19T02:30:07;6.20;99.90
20973;DHT22;10645;52.370;13.314;2023-05-19T02:32:34;6.10;99.90
20973;DHT22;10645;52.370;13.314;2023-05-19T02:35:01;6.10;99.90
20973;DHT22;10645;52.370;13.314;2023-05-19T02:37:27;6.00;99.90
20973;DHT22;10645;52.370;13.314;2023-05-19T02:39:54;6.10;99.90
20973;DHT22;10645;52.370;13.314;2023-05-19T02:42:20;6.00;99.90
20973;DHT22;10645;52.370;13.314;2023-05-19T02:44:47;6.00;99.90
20973;DHT22;10645;52.370;13.314;2023-05-19T02:47:13;6.00;99.90
20973;DHT22;10645;52.370;13.314;2023-05-19T02:49:39;6.00;99.90
20973;DHT22;10645;52.370;13.314;2023-05-19T02:52:06;6.00;99.90
20973;DHT22;10645;52.370;13.314;2023-05-19T02:54:33;5.90;99.90
20973;DHT22;10645;52.370;13.314;2023-05-19T02:57:00;5.90;99.90
20973;DHT22;10645;52.370;13.314;2023-05-19T02:59:26;5.90;99.90
20973;DHT22;10645;52.370;13.314;2023-05-19T03:01:55;5.90;99.90
20973;DHT22;10645;52.370;13.314;2023-05-19T03:04:21;5.90;99.90
20973;DHT22;10645;52.370;13.314;2023-05-19T03:06:47;5.90;99.90
20973;DHT22;10645;52.370;13.314;2023-05-19T03:09:13;6.00;99.90
20973;DHT22;10645;52.370;13.314;2023-05-19T03:11:40;6.20;99.90
20973;DHT22;10645;52.370;13.314;2023-05-19T03:14:06;6.30;99.90
20973;DHT22;10645;52.370;13.314;2023-05-19T03:16:34;6.40;99.90
20973;DHT22;10645;52.370;13.314;2023-05-19T03:19:00;6.50;99.90
20973;DHT22;10645;52.370;13.314;2023-05-19T03:21:26;6.60;99.90
20973;DHT22;10645;52.370;13.314;2023-05-19T03:23:52;6.70;99.90
20973;DHT22;10645;52.370;13.314;2023-05-19T03:26:20;6.70;99.90
20973;DHT22;10645;52.370;13.314;2023-05-19T03:28:47;6.70;99.90
20973;DHT22;10645;52.370;13.314;2023-05-19T03:31:13;6.80;99.90
20973;DHT22;10645;52.370;13.314;2023-05-19T03:33:40;6.80;99.90
20973;DHT22;10645;52.370;13.314;2023-05-19T03:36:07;6.80;99.90
20973;DHT22;10645;52.370;13.314;2023-05-19T03:38:36;6.80;99.90
20973;DHT22;10645;52.370;13.314;2023-05-19T03:41:02;6.90;99.90
20973;DHT22;10645;52.370;13.314;2023-05-19T03:43:28;6.90;99.90
20973;DHT22;10645;52.370;13.314;2023-05-19T03:45:59;6.90;99.90
20973;DHT22;10645;52.370;13.314;2023-05-19T03:48:45;7.00;99.90
20973;DHT22;10645;52.370;13.314;2023-05-19T03:51:47;7.00;99.90
20973;DHT22;10645;52.370;13.314;2023-05-19T03:54:23;7.10;99.90
20973;DHT22;10645;52.370;13.314;2023-05-19T03:56:50;7.20;99.90
20973;DHT22;10645;52.370;13.314;2023-05-19T03:59:16;7.20;99.90
20973;DHT22;10645;52.370;13.314;2023-05-19T04:01:42;7.20;99.90
20973;DHT22;10645;52.370;13.314;2023-05-19T04:04:08;7.30;99.90
20973;DHT22;10645;52.370;13.314;2023-05-19T04:06:34;7.30;99.90
20973;DHT22;10645;52.370;13.314;2023-05-19T04:09:01;7.40;99.90
20973;DHT22;10645;52.370;13.314;2023-05-19T04:11:28;7.50;99.90
20973;DHT22;10645;52.370;13.314;2023-05-19T04:13:54;7.60;99.90
20973;DHT22;10645;52.370;13.314;2023-05-19T04:16:20;7.70;99.90
20973;DHT22;10645;52.370;13.314;2023-05-19T04:18:47;7.70;99.90
20973;DHT22;10645;52.370;13.314;2023-05-19T04:21:13;7.80;99.90
20973;DHT22;10645;52.370;13.314;2023-05-19T04:23:39;7.80;99.90
20973;DHT22;10645;52.370;13.314;2023-05-19T04:26:05;7.90;99.90
20973;DHT22;10645;52.370;13.314;2023-05-19T04:28:31;8.00;99.90
20973;DHT22;10645;52.370;13.314;2023-05-19T04:30:58;8.00;99.90
20973;DHT22;10645;52.370;13.314;2023-05-19T04:33:24;8.20;99.90
20973;DHT22;10645;52.370;13.314;2023-05-19T04:35:51;8.30;99.90
20973;DHT22;10645;52.370;13.314;2023-05-19T04:38:18;8.30;99.90
20973;DHT22;10645;52.370;13.314;2023-05-19T04:40:46;8.40;99.90
20973;DHT22;10645;52.370;13.314;2023-05-19T04:43:14;8.50;99.90
20973;DHT22;10645;52.370;13.314;2023-05-19T04:45:41;8.50;99.90
20973;DHT22;10645;52.370;13.314;2023-05-19T04:48:09;8.60;99.90
20973;DHT22;10645;52.370;13.314;2023-05-19T04:50:37;8.70;99.90
20973;DHT22;10645;52.370;13.314;2023-05-19T04:53:08;8.80;99.90
20973;DHT22;10645;52.370;13.314;2023-05-19T04:55:34;8.80;99.90
20973;DHT22;10645;52.370;13.314;2023-05-19T04:58:00;8.90;99.90
20973;DHT22;10645;52.370;13.314;2023-05-19T05:00:27;9.00;99.90
20973;DHT22;10645;52.370;13.314;2023-05-19T05:02:58;9.00;99.90
20973;DHT22;10645;52.370;13.314;2023-05-19T05:05:26;9.10;99.90
20973;DHT22;10645;52.370;13.314;2023-05-19T05:07:52;9.20;99.90
20973;DHT22;10645;52.370;13.314;2023-05-19T05:10:20;9.20;99.90
20973;DHT22;10645;52.370;13.314;2023-05-19T05:12:47;9.20;99.90
20973;DHT22;10645;52.370;13.314;2023-05-19T05:15:14;9.30;99.90
20973;DHT22;10645;52.370;13.314;2023-05-19T05:17:40;9.30;99.90
20973;DHT22;10645;52.370;13.314;2023-05-19T05:20:07;9.40;99.90
20973;DHT22;10645;52.370;13.314;2023-05-19T05:22:34;9.40;99.90
20973;DHT22;10645;52.370;13.314;2023-05-19T05:25:02;9.50;99.90
20973;DHT22;10645;52.370;13.314;2023-05-19T05:27:28;9.50;99.90
20973;DHT22;10645;52.370;13.314;2023-05-19T05:29:54;9.60;99.90
20973;DHT22;10645;52.370;13.314;2023-05-19T05:32:21;9.70;99.90
20973;DHT22;10645;52.370;13.314;2023-05-19T05:34:47;9.80;99.90
20973;DHT22;10645;52.370;13.314;2023-05-19T05:37:14;9.80;99.90
20973;DHT22;10645;52.370;13.314;2023-05-19T05:39:40;9.80;99.90
20973;DHT22;10645;52.370;13.314;2023-05-19T05:42:07;9.90;99.90
20973;DHT22;10645;52.370;13.314;2023-05-19T05:44:39;10.00;99.90
20973;DHT22;10645;52.370;13.314;2023-05-19T05:47:06;10.10;99.90
20973;DHT22;10645;52.370;13.314;2023-05-19T05:49:33;10.20;99.90
20973;DHT22;10645;52.370;13.314;2023-05-19T05:52:03;10.40;99.90
20973;DHT22;10645;52.370;13.314;2023-05-19T05:54:30;10.50;99.90
20973;DHT22;10645;52.370;13.314;2023-05-19T05:56:56;10.70;99.90
20973;DHT22;10645;52.370;13.314;2023-05-19T05:59:23;10.80;99.90
20973;DHT22;10645;52.370;13.314;2023-05-19T06:01:49;10.90;99.90
20973;DHT22;10645;52.370;13.314;2023-05-19T06:04:18;10.90;99.90
20973;DHT22;10645;52.370;13.314;2023-05-19T06:06:45;11.00;99.90
20973;DHT22;10645;52.370;13.314;2023-05-19T06:09:16;11.10;99.90
20973;DHT22;10645;52.370;13.314;2023-05-19T06:11:43;11.20;99.90
20973;DHT22;10645;52.370;13.314;2023-05-19T06:14:09;11.40;99.90
20973;DHT22;10645;52.370;13.314;2023-05-19T06:17:01;11.50;99.90
20973;DHT22;10645;52.370;13.314;2023-05-19T06:19:29;11.60;99.90
20973;DHT22;10645;52.370;13.314;2023-05-19T06:21:55;11.70;99.90
20973;DHT22;10645;52.370;13.314;2023-05-19T06:24:21;11.90;99.90
20973;DHT22;10645;52.370;13.314;2023-05-19T06:26:47;12.10;99.90
20973;DHT22;10645;52.370;13.314;2023-05-19T06:29:15;12.30;99.90
20973;DHT22;10645;52.370;13.314;2023-05-19T06:31:42;12.50;99.90
20973;DHT22;10645;52.370;13.314;2023-05-19T06:34:10;12.60;99.90
20973;DHT22;10645;52.370;13.314;2023-05-19T06:36:39;12.80;99.90
20973;DHT22;10645;52.370;13.314;2023-05-19T06:39:07;13.00;99.90
20973;DHT22;10645;52.370;13.314;2023-05-19T06:41:33;13.00;99.90
20973;DHT22;10645;52.370;13.314;2023-05-19T06:43:59;13.00;99.90
20973;DHT22;10645;52.370;13.314;2023-05-19T06:46:25;13.20;99.90
20973;DHT22;10645;52.370;13.314;2023-05-19T06:48:52;13.30;99.90
20973;DHT22;10645;52.370;13.314;2023-05-19T06:51:21;13.50;99.90
20973;DHT22;10645;52.370;13.314;2023-05-19T06:53:51;13.60;99.90
20973;DHT22;10645;52.370;13.314;2023-05-19T06:56:17;13.60;99.90
20973;DHT22;10645;52.370;13.314;2023-05-19T06:58:44;13.60;99.90
20973;DHT22;10645;52.370;13.314;2023-05-19T07:01:11;13.70;99.90
20973;DHT22;10645;52.370;13.314;2023-05-19T07:03:43;13.90;99.90
20973;DHT22;10645;52.370;13.314;2023-05-19T07:06:11;14.20;99.90
20973;DHT22;10645;52.370;13.314;2023-05-19T07:08:37;14.30;99.90
20973;DHT22;10645;52.370;13.314;2023-05-19T07:11:05;14.50;99.90
20973;DHT22;10645;52.370;13.314;2023-05-19T07:13:31;14.60;99.90
20973;DHT22;10645;52.370;13.314;2023-05-19T07:15:57;14.80;99.90
20973;DHT22;10645;52.370;13.314;2023-05-19T07:18:26;15.00;99.90
20973;DHT22;10645;52.370;13.314;2023-05-19T07:20:54;15.00;99.90
20973;DHT22;10645;52.370;13.314;2023-05-19T07:23:20;15.00;99.90
20973;DHT22;10645;52.370;13.314;2023-05-19T07:25:47;15.10;99.90
20973;DHT22;10645;52.370;13.314;2023-05-19T07:28:13;15.40;99.90
20973;DHT22;10645;52.370;13.314;2023-05-19T07:30:39;15.50;99.90
20973;DHT22;10645;52.370;13.314;2023-05-19T07:33:05;15.60;99.90
20973;DHT22;10645;52.370;13.314;2023-05-19T07:35:31;15.80;99.90
20973;DHT22;10645;52.370;13.314;2023-05-19T07:37:57;16.00;99.90
20973;DHT22;10645;52.370;13.314;2023-05-19T07:40:23;16.10;99.90
20973;DHT22;10645;52.370;13.314;2023-05-19T07:42:50;16.20;99.90
20973;DHT22;10645;52.370;13.314;2023-05-19T07:45:16;16.40;99.90
20973;DHT22;10645;52.370;13.314;2023-05-19T07:47:42;16.50;99.90
20973;DHT22;10645;52.370;13.314;2023-05-19T07:50:08;16.60;99.90
20973;DHT22;10645;52.370;13.314;2023-05-19T07:52:34;16.80;99.90
20973;DHT22;10645;52.370;13.314;2023-05-19T07:55:00;17.20;99.90
20973;DHT22;10645;52.370;13.314;2023-05-19T07:57:26;17.40;99.90
20973;DHT22;10645;52.370;13.314;2023-05-19T07:59:52;17.70;99.90
20973;DHT22;10645;52.370;13.314;2023-05-19T08:02:18;17.60;99.90
20973;DHT22;10645;52.370;13.314;2023-05-19T08:04:44;17.40;99.90
20973;DHT22;10645;52.370;13.314;2023-05-19T08:07:10;17.40;99.90
20973;DHT22;10645;52.370;13.314;2023-05-19T08:09:36;17.50;99.90
20973;DHT22;10645;52.370;13.314;2023-05-19T08:12:03;17.60;99.90
20973;DHT22;10645;52.370;13.314;2023-05-19T08:14:29;17.80;99.90
20973;DHT22;10645;52.370;13.314;2023-05-19T08:16:58;17.80;99.90
20973;DHT22;10645;52.370;13.314;2023-05-19T08:19:24;18.10;99.90
20973;DHT22;10645;52.370;13.314;2023-05-19T08:21:50;18.10;99.90
20973;DHT22;10645;52.370;13.314;2023-05-19T08:24:16;18.20;99.90
20973;DHT22;10645;52.370;13.314;2023-05-19T08:26:43;18.30;99.90
20973;DHT22;10645;52.370;13.314;2023-05-19T08:29:09;18.50;99.90
20973;DHT22;10645;52.370;13.314;2023-05-19T08:31:35;18.50;99.90
20973;DHT22;10645;52.370;13.314;2023-05-19T08:34:01;18.90;99.90
20973;DHT22;10645;52.370;13.314;2023-05-19T08:36:27;19.20;99.90
20973;DHT22;10645;52.370;13.314;2023-05-19T08:38:54;19.30;99.80
20973;DHT22;10645;52.370;13.314;2023-05-19T08:41:20;19.00;99.90
20973;DHT22;10645;52.370;13.314;2023-05-19T08:43:48;19.40;99.40
20973;DHT22;10645;52.370;13.314;2023-05-19T08:46:15;19.50;98.20
20973;DHT22;10645;52.370;13.314;2023-05-19T08:48:43;19.60;99.70
20973;DHT22;10645;52.370;13.314;2023-05-19T08:51:38;19.70;98.70
20973;DHT22;10645;52.370;13.314;2023-05-19T08:54:14;19.30;97.70
20973;DHT22;10645;52.370;13.314;2023-05-19T08:56:44;18.80;99.40
20973;DHT22;10645;52.370;13.314;2023-05-19T08:59:12;18.60;99.90
20973;DHT22;10645;52.370;13.314;2023-05-19T09:01:41;18.60;99.50
20973;DHT22;10645;52.370;13.314;2023-05-19T09:04:07;18.80;99.90
20973;DHT22;10645;52.370;13.314;2023-05-19T09:06:33;19.20;97.80
20973;DHT22;10645;52.370;13.314;2023-05-19T09:08:59;19.30;98.10
20973;DHT22;10645;52.370;13.314;2023-05-19T09:11:26;19.50;98.20
20973;DHT22;10645;52.370;13.314;2023-05-19T09:13:52;19.40;96.10
20973;DHT22;10645;52.370;13.314;2023-05-19T09:16:18;19.20;96.90
20973;DHT22;10645;52.370;13.314;2023-05-19T09:18:53;18.60;97.20
20973;DHT22;10645;52.370;13.314;2023-05-19T09:21:26;18.80;97.80
20973;DHT22;10645;52.370;13.314;2023-05-19T09:24:13;19.20;95.30
20973;DHT22;10645;52.370;13.314;2023-05-19T09:26:41;19.60;96.40
20973;DHT22;10645;52.370;13.314;2023-05-19T09:29:17;19.90;94.10
20973;DHT22;10645;52.370;13.314;2023-05-19T09:31:54;19.80;97.00
20973;DHT22;10645;52.370;13.314;2023-05-19T09:34:25;20.00;94.50
20973;DHT22;10645;52.370;13.314;2023-05-19T09:36:52;20.20;96.80
20973;DHT22;10645;52.370;13.314;2023-05-19T09:39:20;20.60;95.30
20973;DHT22;10645;52.370;13.314;2023-05-19T09:41:50;20.90;95.20
20973;DHT22;10645;52.370;13.314;2023-05-19T09:44:24;21.10;94.30
20973;DHT22;10645;52.370;13.314;2023-05-19T09:46:55;21.40;94.50
20973;DHT22;10645;52.370;13.314;2023-05-19T09:49:25;21.10;94.50
20973;DHT22;10645;52.370;13.314;2023-05-19T09:52:00;20.90;91.30
20973;DHT22;10645;52.370;13.314;2023-05-19T09:54:28;20.50;93.50
20973;DHT22;10645;52.370;13.314;2023-05-19T09:57:01;20.20;92.20
20973;DHT22;10645;52.370;13.314;2023-05-19T09:59:29;19.90;92.70
20973;DHT22;10645;52.370;13.314;2023-05-19T10:01:57;20.00;92.70
20973;DHT22;10645;52.370;13.314;2023-05-19T10:04:27;20.10;92.70
20973;DHT22;10645;52.370;13.314;2023-05-19T10:06:55;20.40;92.70
20973;DHT22;10645;52.370;13.314;2023-05-19T10:09:25;20.60;92.40
20973;DHT22;10645;52.370;13.314;2023-05-19T10:11:53;20.80;92.40
20973;DHT22;10645;52.370;13.314;2023-05-19T10:14:24;20.60;93.60
20973;DHT22;10645;52.370;13.314;2023-05-19T10:16:51;20.80;93.00
20973;DHT22;10645;52.370;13.314;2023-05-19T10:19:21;20.90;91.50
20973;DHT22;10645;52.370;13.314;2023-05-19T10:21:48;20.90;93.00
20973;DHT22;10645;52.370;13.314;2023-05-19T10:24:15;20.80;93.50
20973;DHT22;10645;52.370;13.314;2023-05-19T10:26:54;20.90;91.90
20973;DHT22;10645;52.370;13.314;2023-05-19T10:29:26;21.10;93.80
20973;DHT22;10645;52.370;13.314;2023-05-19T10:31:54;21.40;90.40
20973;DHT22;10645;52.370;13.314;2023-05-19T10:34:46;21.20;91.20
20973;DHT22;10645;52.370;13.314;2023-05-19T10:37:35;21.50;91.50
20973;DHT22;10645;52.370;13.314;2023-05-19T10:40:25;21.30;92.00
20973;DHT22;10645;52.370;13.314;2023-05-19T10:43:18;20.80;92.00
20973;DHT22;10645;52.370;13.314;2023-05-19T10:45:48;20.60;92.20
20973;DHT22;10645;52.370;13.314;2023-05-19T10:48:18;21.00;93.30
20973;DHT22;10645;52.370;13.314;2023-05-19T10:50:51;21.30;91.80
20973;DHT22;10645;52.370;13.314;2023-05-19T10:53:18;21.30;93.70
20973;DHT22;10645;52.370;13.314;2023-05-19T10:55:54;21.40;90.80
20973;DHT22;10645;52.370;13.314;2023-05-19T11:01:12;21.80;89.00
20973;DHT22;10645;52.370;13.314;2023-05-19T11:03:48;21.90;88.60
20973;DHT22;10645;52.370;13.314;2023-05-19T11:08:45;21.50;92.30
20973;DHT22;10645;52.370;13.314;2023-05-19T11:11:16;21.40;89.70
20973;DHT22;10645;52.370;13.314;2023-05-19T11:13:46;21.30;89.60
20973;DHT22;10645;52.370;13.314;2023-05-19T11:16:13;20.90;89.90
20973;DHT22;10645;52.370;13.314;2023-05-19T11:18:39;20.90;91.00
20973;DHT22;10645;52.370;13.314;2023-05-19T11:21:05;20.70;90.60
20973;DHT22;10645;52.370;13.314;2023-05-19T11:23:37;20.90;92.40
20973;DHT22;10645;52.370;13.314;2023-05-19T11:26:06;20.80;90.80
20973;DHT22;10645;52.370;13.314;2023-05-19T11:28:34;20.90;90.80
20973;DHT22;10645;52.370;13.314;2023-05-19T11:31:01;21.10;88.40
20973;DHT22;10645;52.370;13.314;2023-05-19T11:33:27;21.20;92.20
20973;DHT22;10645;52.370;13.314;2023-05-19T11:35:57;21.20;91.20
20973;DHT22;10645;52.370;13.314;2023-05-19T11:38:23;21.30;88.60
20973;DHT22;10645;52.370;13.314;2023-05-19T11:40:52;21.10;88.90
20973;DHT22;10645;52.370;13.314;2023-05-19T11:43:18;20.90;87.90
20973;DHT22;10645;52.370;13.314;2023-05-19T11:45:46;20.70;88.60
20973;DHT22;10645;52.370;13.314;2023-05-19T11:48:13;20.30;90.00
20973;DHT22;10645;52.370;13.314;2023-05-19T11:50:40;20.50;90.50
20973;DHT22;10645;52.370;13.314;2023-05-19T11:53:11;20.60;91.80
20973;DHT22;10645;52.370;13.314;2023-05-19T11:55:43;21.00;88.20
20973;DHT22;10645;52.370;13.314;2023-05-19T11:58:09;21.20;89.40
20973;DHT22;10645;52.370;13.314;2023-05-19T12:00:37;21.10;90.00
20973;DHT22;10645;52.370;13.314;2023-05-19T12:03:04;21.00;90.30
20973;DHT22;10645;52.370;13.314;2023-05-19T12:05:30;21.20;91.30
20973;DHT22;10645;52.370;13.314;2023-05-19T12:07:57;21.40;88.20
20973;DHT22;10645;52.370;13.314;2023-05-19T12:10:29;20.90;88.20
20973;DHT22;10645;52.370;13.314;2023-05-19T12:12:55;20.70;88.60
20973;DHT22;10645;52.370;13.314;2023-05-19T12:15:23;20.60;91.10
20973;DHT22;10645;52.370;13.314;2023-05-19T12:17:57;20.40;89.90
20973;DHT22;10645;52.370;13.314;2023-05-19T12:20:24;20.50;90.00
20973;DHT22;10645;52.370;13.314;2023-05-19T12:22:52;20.50;90.80
20973;DHT22;10645;52.370;13.314;2023-05-19T12:25:19;20.30;92.70
20973;DHT22;10645;52.370;13.314;2023-05-19T12:27:45;20.20;92.40
20973;DHT22;10645;52.370;13.314;2023-05-19T12:30:13;20.30;91.20
20973;DHT22;10645;52.370;13.314;2023-05-19T12:32:39;20.40;90.10
20973;DHT22;10645;52.370;13.314;2023-05-19T12:35:05;20.70;91.50
20973;DHT22;10645;52.370;13.314;2023-05-19T12:37:32;21.00;89.70
20973;DHT22;10645;52.370;13.314;2023-05-19T12:40:00;20.90;88.60
20973;DHT22;10645;52.370;13.314;2023-05-19T12:42:26;20.30;90.00
20973;DHT22;10645;52.370;13.314;2023-05-19T12:44:59;19.80;90.70
20973;DHT22;10645;52.370;13.314;2023-05-19T12:47:32;19.90;92.80
20973;DHT22;10645;52.370;13.314;2023-05-19T12:52:24;19.80;93.00
20973;DHT22;10645;52.370;13.314;2023-05-19T12:55:05;19.60;92.20
20973;DHT22;10645;52.370;13.314;2023-05-19T12:57:35;19.30;92.20
20973;DHT22;10645;52.370;13.314;2023-05-19T13:00:04;19.30;91.60
20973;DHT22;10645;52.370;13.314;2023-05-19T13:02:37;19.50;91.20
20973;DHT22;10645;52.370;13.314;2023-05-19T13:05:19;19.70;91.10
20973;DHT22;10645;52.370;13.314;2023-05-19T13:08:08;19.70;91.00
20973;DHT22;10645;52.370;13.314;2023-05-19T13:10:35;19.70;91.80
20973;DHT22;10645;52.370;13.314;2023-05-19T13:13:02;20.10;90.10
20973;DHT22;10645;52.370;13.314;2023-05-19T13:15:30;20.40;90.50
20973;DHT22;10645;52.370;13.314;2023-05-19T13:17:57;20.20;92.30
20973;DHT22;10645;52.370;13.314;2023-05-19T13:20:23;20.40;90.20
20973;DHT22;10645;52.370;13.314;2023-05-19T13:22:49;20.80;90.90
20973;DHT22;10645;52.370;13.314;2023-05-19T13:25:15;20.90;93.20
20973;DHT22;10645;52.370;13.314;2023-05-19T13:27:43;20.70;90.30
20973;DHT22;10645;52.370;13.314;2023-05-19T13:30:11;20.30;91.60
20973;DHT22;10645;52.370;13.314;2023-05-19T13:32:37;20.00;89.90
20973;DHT22;10645;52.370;13.314;2023-05-19T13:35:03;19.60;90.30
20973;DHT22;10645;52.370;13.314;2023-05-19T13:37:29;19.50;89.20
20973;DHT22;10645;52.370;13.314;2023-05-19T13:39:55;19.50;91.60
20973;DHT22;10645;52.370;13.314;2023-05-19T13:42:25;19.50;91.20
20973;DHT22;10645;52.370;13.314;2023-05-19T13:44:54;19.20;90.70
20973;DHT22;10645;52.370;13.314;2023-05-19T13:47:23;19.40;92.60
20973;DHT22;10645;52.370;13.314;2023-05-19T13:49:50;19.70;90.70
20973;DHT22;10645;52.370;13.314;2023-05-19T13:52:17;19.80;92.20
20973;DHT22;10645;52.370;13.314;2023-05-19T13:54:43;19.90;88.50
20973;DHT22;10645;52.370;13.314;2023-05-19T13:57:09;20.10;91.50
20973;DHT22;10645;52.370;13.314;2023-05-19T13:59:36;20.60;91.20
20973;DHT22;10645;52.370;13.314;2023-05-19T14:02:02;20.60;90.20
20973;DHT22;10645;52.370;13.314;2023-05-19T14:04:29;20.50;90.60
20973;DHT22;10645;52.370;13.314;2023-05-19T14:06:55;20.30;90.60
20973;DHT22;10645;52.370;13.314;2023-05-19T14:09:21;20.10;90.00
20973;DHT22;10645;52.370;13.314;2023-05-19T14:11:48;20.00;89.70
20973;DHT22;10645;52.370;13.314;2023-05-19T14:14:14;19.60;90.20
20973;DHT22;10645;52.370;13.314;2023-05-19T14:16:40;19.60;90.80
20973;DHT22;10645;52.370;13.314;2023-05-19T14:19:06;19.60;91.10
20973;DHT22;10645;52.370;13.314;2023-05-19T14:21:33;19.60;92.30
20973;DHT22;10645;52.370;13.314;2023-05-19T14:23:59;19.90;91.90
20973;DHT22;10645;52.370;13.314;2023-05-19T14:26:26;20.40;89.30
20973;DHT22;10645;52.370;13.314;2023-05-19T14:28:52;20.70;90.20
20973;DHT22;10645;52.370;13.314;2023-05-19T14:31:18;20.60;90.90
20973;DHT22;10645;52.370;13.314;2023-05-19T14:33:44;20.40;90.00
20973;DHT22;10645;52.370;13.314;2023-05-19T14:36:10;20.10;90.20
20973;DHT22;10645;52.370;13.314;2023-05-19T14:38:36;20.00;89.80
20973;DHT22;10645;52.370;13.314;2023-05-19T14:41:03;20.10;91.20
20973;DHT22;10645;52.370;13.314;2023-05-19T14:43:29;20.30;92.80
20973;DHT22;10645;52.370;13.314;2023-05-19T14:45:55;20.60;90.40
20973;DHT22;10645;52.370;13.314;2023-05-19T14:48:21;20.90;90.90
20973;DHT22;10645;52.370;13.314;2023-05-19T14:50:47;21.40;89.10
20973;DHT22;10645;52.370;13.314;2023-05-19T14:53:14;21.80;87.00
20973;DHT22;10645;52.370;13.314;2023-05-19T14:55:40;21.60;87.80
20973;DHT22;10645;52.370;13.314;2023-05-19T14:58:06;21.30;89.90
20973;DHT22;10645;52.370;13.314;2023-05-19T15:00:32;20.80;87.80
20973;DHT22;10645;52.370;13.314;2023-05-19T15:02:58;20.60;87.80
20973;DHT22;10645;52.370;13.314;2023-05-19T15:05:24;20.50;90.70
20973;DHT22;10645;52.370;13.314;2023-05-19T15:07:50;20.50;90.10
20973;DHT22;10645;52.370;13.314;2023-05-19T15:10:17;20.60;88.30
20973;DHT22;10645;52.370;13.314;2023-05-19T15:12:47;20.60;87.70
20973;DHT22;10645;52.370;13.314;2023-05-19T15:15:13;20.50;88.60
20973;DHT22;10645;52.370;13.314;2023-05-19T15:17:41;20.40;90.60
20973;DHT22;10645;52.370;13.314;2023-05-19T15:20:07;20.30;90.70
20973;DHT22;10645;52.370;13.314;2023-05-19T15:22:33;20.40;91.80
20973;DHT22;10645;52.370;13.314;2023-05-19T15:24:59;20.30;91.20
20973;DHT22;10645;52.370;13.314;2023-05-19T15:27:26;20.30;90.40
20973;DHT22;10645;52.370;13.314;2023-05-19T15:29:52;20.00;91.80
20973;DHT22;10645;52.370;13.314;2023-05-19T15:32:18;19.70;91.90
20973;DHT22;10645;52.370;13.314;2023-05-19T15:34:44;19.30;91.60
20973;DHT22;10645;52.370;13.314;2023-05-19T15:37:11;19.20;92.60
20973;DHT22;10645;52.370;13.314;2023-05-19T15:39:37;19.10;92.70